KRSW/RSW METAR and TAF weather

Enter ICAO airport designator
Station Type Date Time Source
KRSW METAR 2020/04/03 21:53 UTC NOAA

KRSW 032153Z 25013KT 10SM FU CLR 27/15 A2993 RMK AO2 SLP131 T02670150


Station Type Date Time Source
KRSW Decoded METAR 2020/04/03 21:53 UTC NOAA

FORT MYERS SW FL INTERNATIONAL AIRPORT , FL, United States (KRSW) 26-32N 081-46W 9M
Apr 03, 2020 - 05:53 PM EDT / 2020.04.03 2153 UTC
Wind: from the WSW (250 degrees) at 15 MPH (13 KT):0
Visibility: 10 mile(s):0
Sky conditions: clear
Weather: smoke
Temperature: 80.1 F (26.7 C)
Dew Point: 59.0 F (15.0 C)
Relative Humidity: 48%
Pressure (altimeter): 29.93 in. Hg (1013 hPa)
ob: KRSW 032153Z 25013KT 10SM FU CLR 27/15 A2993 RMK AO2 SLP131 T02670150
cycle: 22

Station Type Date Time Source
KRSW TAF 2020/04/03 18:27 UTC NOAA

TAF KRSW 031725Z 0318/0418 23007KT P6SM SCT150 SCT200
FM032000 26012KT P6SM FEW050 SCT150 BKN200
FM040100 VRB04KT P6SM SCT050 BKN200
FM041700 26007KT P6SM FEW150 BKN200

Example: see airport list